createdAt,value
2019-04-14T00:00:51.376Z,99.90
2019-04-14T00:03:36.909Z,99.90
2019-04-14T00:06:05.328Z,99.90
2019-04-14T00:08:32.970Z,99.90
2019-04-14T00:11:01.719Z,99.90
2019-04-14T00:13:30.662Z,99.90
2019-04-14T00:15:58.912Z,99.90
2019-04-14T00:18:27.263Z,99.90
2019-04-14T00:20:55.546Z,99.90
2019-04-14T00:23:23.719Z,99.90
2019-04-14T00:25:52.224Z,99.90
2019-04-14T00:28:20.661Z,99.90
2019-04-14T00:30:49.132Z,99.90
2019-04-14T00:33:19.235Z,99.90
2019-04-14T00:36:10.892Z,99.90
2019-04-14T00:38:41.679Z,99.90
2019-04-14T00:41:43.628Z,99.90
2019-04-14T00:44:27.625Z,99.90
2019-04-14T00:47:00.657Z,99.90
2019-04-14T00:49:28.998Z,99.90
2019-04-14T00:51:57.078Z,99.90
2019-04-14T00:54:24.617Z,99.90
2019-04-14T00:56:52.145Z,99.90
2019-04-14T00:59:20.106Z,99.90
2019-04-14T01:01:48.370Z,99.90
2019-04-14T01:04:16.561Z,99.90
2019-04-14T01:06:44.886Z,99.90
2019-04-14T01:09:15.183Z,99.90
2019-04-14T01:11:42.795Z,99.90
2019-04-14T01:14:10.384Z,99.90
2019-04-14T01:16:38.580Z,99.90
2019-04-14T01:19:06.891Z,99.90
2019-04-14T01:21:34.967Z,99.90
2019-04-14T01:24:03.212Z,99.90
2019-04-14T01:26:31.535Z,99.90
2019-04-14T01:28:59.395Z,99.90
2019-04-14T01:31:27.382Z,99.90
2019-04-14T01:33:55.559Z,99.90
2019-04-14T01:36:23.492Z,99.90
2019-04-14T01:38:51.471Z,99.90
2019-04-14T01:41:19.379Z,99.90
2019-04-14T01:43:47.436Z,99.90
2019-04-14T01:46:20.965Z,99.90
2019-04-14T01:48:45.379Z,99.90
2019-04-14T01:51:39.581Z,99.90
2019-04-14T01:54:25.694Z,99.90
2019-04-14T01:57:22.084Z,99.90
2019-04-14T01:59:50.350Z,99.90
2019-04-14T02:02:20.587Z,99.90
2019-04-14T02:04:48.506Z,99.90
2019-04-14T02:07:16.644Z,99.90
2019-04-14T02:09:44.729Z,99.90
2019-04-14T02:12:12.769Z,99.90
2019-04-14T02:14:40.846Z,99.90
2019-04-14T02:17:09.501Z,99.90
2019-04-14T02:19:37.240Z,99.90
2019-04-14T02:22:05.144Z,99.90
2019-04-14T02:24:33.070Z,99.90
2019-04-14T02:27:01.831Z,99.90
2019-04-14T02:29:29.791Z,99.90
2019-04-14T02:32:25.175Z,99.90
2019-04-14T02:37:30.097Z,99.90
2019-04-14T02:39:53.956Z,99.90
2019-04-14T02:44:51.927Z,99.90
2019-04-14T02:47:44.771Z,99.90
2019-04-14T02:49:44.127Z,99.90
2019-04-14T02:52:24.666Z,99.90
2019-04-14T02:57:23.036Z,99.90
2019-04-14T02:59:51.529Z,99.90
2019-04-14T03:04:54.750Z,99.90
2019-04-14T03:07:21.930Z,99.90
2019-04-14T03:10:29.461Z,99.90
2019-04-14T03:12:16.354Z,99.90
2019-04-14T03:14:47.902Z,99.90
2019-04-14T03:17:31.501Z,99.90
2019-04-14T03:20:22.478Z,99.90
2019-04-14T03:23:10.711Z,99.90
2019-04-14T03:25:34.187Z,99.90
2019-04-14T03:28:34.328Z,99.90
2019-04-14T03:31:38.922Z,99.90
2019-04-14T03:38:53.705Z,99.90
2019-04-14T03:43:43.076Z,99.90
2019-04-14T03:46:21.389Z,99.90
2019-04-14T03:53:46.065Z,99.90
2019-04-14T03:56:24.593Z,99.90
2019-04-14T03:58:53.151Z,99.90
2019-04-14T04:01:21.587Z,99.90
2019-04-14T04:03:49.968Z,99.90
2019-04-14T04:06:18.135Z,99.90
2019-04-14T04:08:46.444Z,99.90
2019-04-14T04:11:15.103Z,99.90
2019-04-14T04:13:43.355Z,99.90
2019-04-14T04:16:13.927Z,99.90
2019-04-14T04:18:50.925Z,99.90
2019-04-14T04:21:31.212Z,99.90
2019-04-14T04:24:04.295Z,99.90
2019-04-14T04:26:41.490Z,99.90
2019-04-14T04:29:28.844Z,99.90
2019-04-14T04:32:16.443Z,99.90
2019-04-14T04:35:04.865Z,99.90
2019-04-14T04:37:43.927Z,99.90
2019-04-14T04:40:20.022Z,99.90
2019-04-14T04:42:48.402Z,99.90
2019-04-14T04:45:17.079Z,99.90
2019-04-14T04:47:45.046Z,99.90
2019-04-14T04:50:12.900Z,99.90
2019-04-14T04:52:40.747Z,99.90
2019-04-14T04:55:08.858Z,99.90
2019-04-14T04:57:37.311Z,99.90
2019-04-14T05:00:07.012Z,99.90
2019-04-14T05:02:35.298Z,99.90
2019-04-14T05:05:05.569Z,99.90
2019-04-14T05:07:33.788Z,99.90
2019-04-14T05:10:19.539Z,99.90
2019-04-14T05:12:54.634Z,99.90
2019-04-14T05:15:33.418Z,99.90
2019-04-14T05:18:01.032Z,99.90
2019-04-14T05:20:29.201Z,99.90
2019-04-14T05:22:57.294Z,99.90
2019-04-14T05:25:25.435Z,99.90
2019-04-14T05:27:55.794Z,99.90
2019-04-14T05:30:24.288Z,99.90
2019-04-14T05:32:52.212Z,99.90
2019-04-14T05:35:20.569Z,99.90
2019-04-14T05:37:48.645Z,99.90
2019-04-14T05:40:16.772Z,99.90
2019-04-14T05:42:45.014Z,99.90
2019-04-14T05:45:13.369Z,99.90
2019-04-14T05:47:41.487Z,99.90
2019-04-14T05:50:09.581Z,99.90
2019-04-14T05:52:38.217Z,99.90
2019-04-14T05:55:06.610Z,99.90
2019-04-14T05:57:35.199Z,99.90
2019-04-14T06:00:04.345Z,99.90
2019-04-14T06:02:33.507Z,99.90
2019-04-14T06:05:01.528Z,99.90
2019-04-14T06:07:29.579Z,99.90
2019-04-14T06:09:57.383Z,99.90
2019-04-14T06:12:25.344Z,99.90
2019-04-14T06:14:53.431Z,99.90
2019-04-14T06:17:20.983Z,99.90
2019-04-14T06:19:48.491Z,99.90
2019-04-14T06:22:15.928Z,99.90
2019-04-14T06:24:44.160Z,99.90
2019-04-14T06:27:11.672Z,99.90
2019-04-14T06:29:39.261Z,99.90
2019-04-14T06:32:33.249Z,99.90
2019-04-14T06:35:19.162Z,99.90
2019-04-14T06:37:51.084Z,99.90
2019-04-14T06:40:19.271Z,99.90
2019-04-14T06:42:46.822Z,99.90
2019-04-14T06:45:14.375Z,99.90
2019-04-14T06:47:42.369Z,99.90
2019-04-14T06:50:10.123Z,99.90
2019-04-14T06:52:37.637Z,99.90
2019-04-14T06:55:05.340Z,99.90
2019-04-14T06:57:33.002Z,99.90
2019-04-14T07:00:01.163Z,99.90
2019-04-14T07:02:28.743Z,99.90
2019-04-14T07:04:56.597Z,99.90
2019-04-14T07:07:24.437Z,99.90
2019-04-14T07:09:51.906Z,99.90
2019-04-14T07:12:19.495Z,99.90
2019-04-14T07:14:47.459Z,99.90
2019-04-14T07:17:15.338Z,99.90
2019-04-14T07:19:42.884Z,99.90
2019-04-14T07:22:10.480Z,99.90
2019-04-14T07:24:38.032Z,99.90
2019-04-14T07:27:05.615Z,99.90
2019-04-14T07:29:45.452Z,99.90
2019-04-14T07:32:31.734Z,99.90
2019-04-14T07:35:11.702Z,99.90
2019-04-14T07:38:02.218Z,99.90
2019-04-14T07:40:38.781Z,99.90
2019-04-14T07:43:09.379Z,99.90
2019-04-14T07:45:45.438Z,99.90
2019-04-14T07:48:31.344Z,99.90
2019-04-14T07:51:24.543Z,99.90
2019-04-14T07:54:01.880Z,99.90
2019-04-14T07:56:48.931Z,99.90
2019-04-14T07:59:29.913Z,99.60
2019-04-14T08:02:06.829Z,99.30
2019-04-14T08:04:37.748Z,98.90
2019-04-14T08:07:05.260Z,98.30
2019-04-14T08:09:33.043Z,98.20
2019-04-14T08:12:01.098Z,97.80
2019-04-14T08:14:28.781Z,98.30
2019-04-14T08:16:56.753Z,97.40
2019-04-14T08:19:24.480Z,97.50
2019-04-14T08:21:52.733Z,97.20
2019-04-14T08:24:20.230Z,96.70
2019-04-14T08:26:48.224Z,96.50
2019-04-14T08:29:16.530Z,96.30
2019-04-14T08:31:44.798Z,96.60
2019-04-14T08:34:13.089Z,96.60
2019-04-14T08:36:40.583Z,96.30
2019-04-14T08:39:08.630Z,95.90
2019-04-14T08:41:45.107Z,95.30
2019-04-14T08:44:17.565Z,95.10
2019-04-14T08:47:02.529Z,95.80
2019-04-14T08:49:37.656Z,95.10
2019-04-14T08:52:26.868Z,95.30
2019-04-14T08:55:01.198Z,95.20
2019-04-14T08:58:00.837Z,95.40
2019-04-14T09:00:48.027Z,95.50
2019-04-14T09:03:38.474Z,95.50
2019-04-14T09:06:23.003Z,95.30
2019-04-14T09:09:15.886Z,95.30
2019-04-14T09:11:56.546Z,95.80
2019-04-14T09:14:24.444Z,95.10
2019-04-14T09:16:52.483Z,95.20
2019-04-14T09:19:20.084Z,94.50
2019-04-14T09:21:47.913Z,94.50
2019-04-14T09:24:15.584Z,94.40
2019-04-14T09:26:43.599Z,94.30
2019-04-14T09:29:12.201Z,94.10
2019-04-14T09:31:39.827Z,92.40
2019-04-14T09:34:08.135Z,94.00
2019-04-14T09:36:35.816Z,93.20
2019-04-14T09:39:05.699Z,93.80
2019-04-14T09:41:33.508Z,93.20
2019-04-14T09:44:01.369Z,93.30
2019-04-14T09:46:28.969Z,92.10
2019-04-14T09:48:56.826Z,91.70
2019-04-14T09:51:25.154Z,91.80
2019-04-14T09:53:53.070Z,90.60
2019-04-14T09:56:20.656Z,90.80
2019-04-14T09:58:48.780Z,90.80
2019-04-14T10:01:17.035Z,91.00
2019-04-14T10:03:44.552Z,90.90
2019-04-14T10:06:12.010Z,90.90
2019-04-14T10:08:39.709Z,89.00
2019-04-14T10:11:07.748Z,87.70
2019-04-14T10:13:36.112Z,85.40
2019-04-14T10:16:03.947Z,85.00
2019-04-14T10:18:31.489Z,87.70
2019-04-14T10:20:59.381Z,85.00
2019-04-14T10:23:26.912Z,83.40
2019-04-14T10:25:54.388Z,80.80
2019-04-14T10:28:22.257Z,83.70
2019-04-14T10:30:50.220Z,80.50
2019-04-14T10:33:17.887Z,82.10
2019-04-14T10:35:45.483Z,81.30
2019-04-14T10:38:13.367Z,80.10
2019-04-14T10:40:41.375Z,77.20
2019-04-14T10:43:09.249Z,78.30
2019-04-14T10:45:37.089Z,79.00
2019-04-14T10:48:04.681Z,77.80
2019-04-14T10:50:32.271Z,74.70
2019-04-14T10:53:00.295Z,76.00
2019-04-14T10:55:27.859Z,76.30
2019-04-14T10:57:55.726Z,73.10
2019-04-14T11:00:23.352Z,74.60
2019-04-14T11:02:51.047Z,73.80
2019-04-14T11:05:19.355Z,74.10
2019-04-14T11:07:46.978Z,73.50
2019-04-14T11:10:14.738Z,71.10
2019-04-14T11:12:42.672Z,75.00
2019-04-14T11:15:10.351Z,75.70
2019-04-14T11:17:37.957Z,72.70
2019-04-14T11:20:05.900Z,68.00
2019-04-14T11:22:33.496Z,71.30
2019-04-14T11:25:01.065Z,70.00
2019-04-14T11:27:28.621Z,70.50
2019-04-14T11:30:03.570Z,68.90
2019-04-14T11:32:49.899Z,72.70
2019-04-14T11:35:27.640Z,74.40
2019-04-14T11:38:08.877Z,75.30
2019-04-14T11:40:42.898Z,76.30
2019-04-14T11:43:10.485Z,74.80
2019-04-14T11:45:38.044Z,74.30
2019-04-14T11:48:05.651Z,73.40
2019-04-14T11:50:33.880Z,72.20
2019-04-14T11:53:01.482Z,75.80
2019-04-14T11:55:29.252Z,72.50
2019-04-14T11:57:57.103Z,69.30
2019-04-14T12:00:50.045Z,70.90
2019-04-14T12:03:49.427Z,71.10
2019-04-14T12:06:36.743Z,69.70
2019-04-14T12:09:21.712Z,66.30
2019-04-14T12:11:49.342Z,64.90
2019-04-14T12:14:16.920Z,64.30
2019-04-14T12:16:44.805Z,61.10
2019-04-14T12:19:12.372Z,62.10
2019-04-14T12:21:39.896Z,59.50
2019-04-14T12:24:07.892Z,62.00
2019-04-14T12:26:35.847Z,58.50
2019-04-14T12:29:05.244Z,59.60
2019-04-14T12:31:33.053Z,58.20
2019-04-14T12:34:00.920Z,58.90
2019-04-14T12:36:28.701Z,57.40
2019-04-14T12:38:56.411Z,58.70
2019-04-14T12:41:31.047Z,60.80
2019-04-14T12:44:27.527Z,58.00
2019-04-14T12:47:14.568Z,55.00
2019-04-14T12:49:44.432Z,56.80
2019-04-14T12:52:21.981Z,57.20
2019-04-14T12:54:49.640Z,56.40
2019-04-14T12:57:24.544Z,53.20
2019-04-14T12:59:52.264Z,53.70
2019-04-14T13:02:26.023Z,52.80
2019-04-14T13:04:55.476Z,53.60
2019-04-14T13:07:23.194Z,53.30
2019-04-14T13:09:50.793Z,52.50
2019-04-14T13:12:18.698Z,53.80
2019-04-14T13:14:46.312Z,52.00
2019-04-14T13:17:14.492Z,51.50
2019-04-14T13:19:42.376Z,51.30
2019-04-14T13:22:09.968Z,53.50
2019-04-14T13:24:37.935Z,55.60
2019-04-14T13:27:05.495Z,54.20
2019-04-14T13:29:33.227Z,53.60
2019-04-14T13:32:01.015Z,51.80
2019-04-14T13:34:28.480Z,52.40
2019-04-14T13:36:56.344Z,52.90
2019-04-14T13:39:24.178Z,52.50
2019-04-14T13:41:52.312Z,54.80
2019-04-14T13:44:19.932Z,55.70
2019-04-14T13:46:47.508Z,56.90
2019-04-14T13:49:15.887Z,56.10
2019-04-14T13:51:44.544Z,57.10
2019-04-14T13:54:12.263Z,56.30
2019-04-14T13:56:39.786Z,58.20
2019-04-14T13:59:07.333Z,57.50
2019-04-14T14:01:34.898Z,59.40
2019-04-14T14:04:03.525Z,58.40
2019-04-14T14:06:31.364Z,56.30
2019-04-14T14:08:58.936Z,56.20
2019-04-14T14:11:46.144Z,56.00
2019-04-14T14:14:21.611Z,56.10
2019-04-14T14:17:04.505Z,53.20
2019-04-14T14:19:36.757Z,52.90
2019-04-14T14:22:09.394Z,53.10
2019-04-14T14:24:43.709Z,53.90
2019-04-14T14:27:11.280Z,54.40
2019-04-14T14:29:39.063Z,54.80
2019-04-14T14:32:11.750Z,54.70
2019-04-14T14:34:39.352Z,53.60
2019-04-14T14:37:07.705Z,54.20
2019-04-14T14:39:35.652Z,54.00
2019-04-14T14:42:03.424Z,53.90
2019-04-14T14:44:36.273Z,55.00
2019-04-14T14:47:18.654Z,54.80
2019-04-14T14:50:17.761Z,55.10
2019-04-14T14:52:45.300Z,53.00
2019-04-14T14:55:13.267Z,54.40
2019-04-14T14:57:40.777Z,54.00
2019-04-14T15:00:16.929Z,54.50
2019-04-14T15:02:44.668Z,53.90
2019-04-14T15:05:12.210Z,54.20
2019-04-14T15:07:40.040Z,53.20
2019-04-14T15:10:07.613Z,55.00
2019-04-14T15:12:35.184Z,54.70
2019-04-14T15:15:03.003Z,55.60
2019-04-14T15:17:30.896Z,55.30
2019-04-14T15:19:58.924Z,56.10
2019-04-14T15:22:26.486Z,57.20
2019-04-14T15:24:54.168Z,57.40
2019-04-14T15:27:21.964Z,58.50
2019-04-14T15:29:50.166Z,58.90
2019-04-14T15:32:17.987Z,59.10
2019-04-14T15:34:45.977Z,58.70
2019-04-14T15:37:13.894Z,59.00
2019-04-14T15:39:41.498Z,58.40
2019-04-14T15:42:09.425Z,57.80
2019-04-14T15:44:37.036Z,57.80
2019-04-14T15:47:04.861Z,57.80
2019-04-14T15:49:32.469Z,56.60
2019-04-14T15:52:00.017Z,56.50
2019-04-14T15:54:28.003Z,57.00
2019-04-14T15:57:15.351Z,56.60
2019-04-14T16:00:05.287Z,58.30
2019-04-14T16:02:41.091Z,59.00
2019-04-14T16:05:43.068Z,58.90
2019-04-14T16:08:18.137Z,59.60
2019-04-14T16:11:05.476Z,59.50
2019-04-14T16:13:51.206Z,59.50
2019-04-14T16:16:31.325Z,59.60
2019-04-14T16:19:04.113Z,59.70
2019-04-14T16:21:31.671Z,59.00
2019-04-14T16:23:59.701Z,59.30
2019-04-14T16:26:45.797Z,60.40
2019-04-14T16:29:23.008Z,61.10
2019-04-14T16:32:25.582Z,60.20
2019-04-14T16:34:56.688Z,60.50
2019-04-14T16:37:24.573Z,61.00
2019-04-14T16:39:52.401Z,61.70
2019-04-14T16:42:20.305Z,61.50
2019-04-14T16:44:47.871Z,60.60
2019-04-14T16:47:15.480Z,59.10
2019-04-14T16:49:43.078Z,58.40
2019-04-14T16:52:42.357Z,59.00
2019-04-14T16:55:16.856Z,58.90
2019-04-14T16:58:02.464Z,60.60
2019-04-14T17:00:33.326Z,61.10
2019-04-14T17:03:01.207Z,62.80
2019-04-14T17:05:29.168Z,64.30
2019-04-14T17:07:56.903Z,65.30
2019-04-14T17:10:24.854Z,65.50
2019-04-14T17:12:52.479Z,65.20
2019-04-14T17:15:48.744Z,66.50
2019-04-14T17:18:34.206Z,64.10
2019-04-14T17:21:20.214Z,63.90
2019-04-14T17:24:02.432Z,65.90
2019-04-14T17:26:44.609Z,67.50
2019-04-14T17:29:31.961Z,68.80
2019-04-14T17:32:17.740Z,69.50
2019-04-14T17:35:07.095Z,70.80
2019-04-14T17:37:57.802Z,71.50
2019-04-14T17:40:43.452Z,72.50
2019-04-14T17:43:20.663Z,73.40
2019-04-14T17:46:10.504Z,74.70
2019-04-14T17:49:06.804Z,75.10
2019-04-14T17:51:47.851Z,76.10
2019-04-14T17:54:29.272Z,77.80
2019-04-14T17:57:11.844Z,78.50
2019-04-14T17:59:48.572Z,79.40
2019-04-14T18:02:25.242Z,80.00
2019-04-14T18:05:08.413Z,80.60
2019-04-14T18:07:47.029Z,81.50
2019-04-14T18:10:28.349Z,82.20
2019-04-14T18:13:18.814Z,83.00
2019-04-14T18:16:17.379Z,83.30
2019-04-14T18:19:03.764Z,84.30
2019-04-14T18:21:31.589Z,84.90
2019-04-14T18:23:59.227Z,85.60
2019-04-14T18:26:26.976Z,86.20
2019-04-14T18:29:14.064Z,86.50
2019-04-14T18:32:10.049Z,86.90
2019-04-14T18:34:56.782Z,87.70
2019-04-14T18:37:30.187Z,88.50
2019-04-14T18:40:26.127Z,89.40
2019-04-14T18:43:08.719Z,89.70
2019-04-14T18:45:51.002Z,90.20
2019-04-14T18:48:38.502Z,90.40
2019-04-14T18:51:28.946Z,90.60
2019-04-14T18:54:12.719Z,91.00
2019-04-14T18:57:00.437Z,90.90
2019-04-14T18:59:43.833Z,91.10
2019-04-14T19:02:13.187Z,91.20
2019-04-14T19:04:41.210Z,91.40
2019-04-14T19:07:10.249Z,91.40
2019-04-14T19:09:38.157Z,91.50
2019-04-14T19:12:24.137Z,91.50
2019-04-14T19:14:56.903Z,91.60
2019-04-14T19:17:29.965Z,91.70
2019-04-14T19:20:01.967Z,91.90
2019-04-14T19:22:27.088Z,92.00
2019-04-14T19:25:07.022Z,92.10
2019-04-14T19:27:24.462Z,92.20
2019-04-14T19:29:52.019Z,92.20
2019-04-14T19:32:19.919Z,92.20
2019-04-14T19:34:48.599Z,92.30
2019-04-14T19:37:16.034Z,92.40
2019-04-14T19:39:43.948Z,92.40
2019-04-14T19:42:11.574Z,92.40
2019-04-14T19:44:39.916Z,92.50
2019-04-14T19:47:07.613Z,92.50
2019-04-14T19:49:35.156Z,92.50
2019-04-14T19:52:02.698Z,92.60
2019-04-14T19:54:30.577Z,92.60
2019-04-14T19:56:58.121Z,92.70
2019-04-14T19:59:26.078Z,92.70
2019-04-14T20:01:54.335Z,92.80
2019-04-14T20:04:22.207Z,92.80
2019-04-14T20:06:49.741Z,92.90
2019-04-14T20:09:17.284Z,93.20
2019-04-14T20:11:45.911Z,93.10
2019-04-14T20:14:13.442Z,93.30
2019-04-14T20:16:59.242Z,93.40
2019-04-14T20:19:45.241Z,93.50
2019-04-14T20:22:44.421Z,93.50
2019-04-14T20:25:40.831Z,93.70
2019-04-14T20:28:36.606Z,93.90
2019-04-14T20:31:35.777Z,94.00
2019-04-14T20:34:03.420Z,94.40
2019-04-14T20:36:31.039Z,94.70
2019-04-14T20:38:58.604Z,94.90
2019-04-14T20:41:26.190Z,94.90
2019-04-14T20:43:54.052Z,95.10
2019-04-14T20:46:21.627Z,95.10
2019-04-14T20:48:49.196Z,95.20
2019-04-14T20:51:16.694Z,95.20
2019-04-14T20:53:44.286Z,95.10
2019-04-14T20:56:11.908Z,95.10
2019-04-14T20:58:39.716Z,95.20
2019-04-14T21:01:09.028Z,95.30
2019-04-14T21:03:53.648Z,95.40
2019-04-14T21:06:30.008Z,95.60
2019-04-14T21:09:14.178Z,95.60
2019-04-14T21:12:10.243Z,95.80
2019-04-14T21:14:55.745Z,95.90
2019-04-14T21:17:29.327Z,96.20
2019-04-14T21:20:03.120Z,96.10
2019-04-14T21:22:37.567Z,96.20
2019-04-14T21:25:34.016Z,96.20
2019-04-14T21:28:19.709Z,96.20
2019-04-14T21:30:52.154Z,96.40
2019-04-14T21:33:39.260Z,96.50
2019-04-14T21:36:27.305Z,96.40
2019-04-14T21:39:07.009Z,96.40
2019-04-14T21:41:34.593Z,96.50
2019-04-14T21:44:02.448Z,96.40
2019-04-14T21:46:29.998Z,96.20
2019-04-14T21:48:57.767Z,96.10
2019-04-14T21:51:45.041Z,96.00
2019-04-14T21:54:12.725Z,96.00
2019-04-14T21:56:40.253Z,96.00
2019-04-14T21:59:14.943Z,96.00
2019-04-14T22:02:00.748Z,95.90
2019-04-14T22:04:50.810Z,96.00
2019-04-14T22:07:41.204Z,96.00
2019-04-14T22:10:14.470Z,96.10
2019-04-14T22:12:42.026Z,96.00
2019-04-14T22:15:12.846Z,96.20
2019-04-14T22:17:40.731Z,96.50
2019-04-14T22:20:08.576Z,96.30
2019-04-14T22:22:36.090Z,96.50
2019-04-14T22:25:03.875Z,96.40
2019-04-14T22:27:31.655Z,96.40
2019-04-14T22:29:59.208Z,96.50
2019-04-14T22:32:27.018Z,96.70
2019-04-14T22:34:54.834Z,96.70
2019-04-14T22:37:22.747Z,96.80
2019-04-14T22:39:50.331Z,96.80
2019-04-14T22:42:18.165Z,96.80
2019-04-14T22:44:45.624Z,97.00
2019-04-14T22:47:13.200Z,97.00
2019-04-14T22:49:41.173Z,97.10
2019-04-14T22:52:09.311Z,97.20
2019-04-14T22:54:36.996Z,97.20
2019-04-14T22:57:04.867Z,97.30
2019-04-14T22:59:32.480Z,97.40
2019-04-14T23:02:09.236Z,97.50
2019-04-14T23:04:56.493Z,97.50
2019-04-14T23:07:34.986Z,97.50
2019-04-14T23:10:09.615Z,97.40
2019-04-14T23:13:03.149Z,97.30
2019-04-14T23:15:41.105Z,97.60
2019-04-14T23:18:18.480Z,97.50
2019-04-14T23:20:52.966Z,97.80
2019-04-14T23:23:30.043Z,97.70
2019-04-14T23:25:57.674Z,97.70
2019-04-14T23:28:26.113Z,97.70
2019-04-14T23:30:53.582Z,97.60
2019-04-14T23:33:21.136Z,97.70
2019-04-14T23:35:49.802Z,97.60
2019-04-14T23:38:17.599Z,97.60
2019-04-14T23:40:45.106Z,97.60
2019-04-14T23:43:13.173Z,97.90
2019-04-14T23:45:40.630Z,98.10
2019-04-14T23:48:08.162Z,98.30
2019-04-14T23:50:36.481Z,98.40
2019-04-14T23:53:04.219Z,98.60
2019-04-14T23:55:32.095Z,98.60
2019-04-14T23:57:59.716Z,98.60
